Time,TemperatureF,DewpointF,PressureIn,WindDirection,WindDirectionDegrees,WindSpeedMPH,WindSpeedGustMPH,Humidity,HourlyPrecipIn,Conditions,Clouds,dailyrainin,SoftwareType,DateUTC
2013-11-02 00:00:00,48.7,42.0,29.77,WNW,295,2.0,7.0,79,0.00,,,0.00,weatherlink.com 1.10,2013-11-02 04:00:00,
2013-11-02 00:15:00,48.3,42.0,29.76,NW,304,3.0,8.0,78,0.00,,,0.00,weatherlink.com 1.10,2013-11-02 04:15:00,
2013-11-02 00:30:00,48.1,42.0,29.76,WSW,255,9.0,9.0,78,0.00,,,0.00,weatherlink.com 1.10,2013-11-02 04:30:00,
2013-11-02 00:45:00,47.7,41.0,29.76,North,360,4.0,8.0,78,0.00,,,0.00,weatherlink.com 1.10,2013-11-02 04:45:00,
2013-11-02 01:00:00,47.6,41.0,29.76,WSW,258,5.0,8.0,78,0.00,,,0.00,weatherlink.com 1.10,2013-11-02 05:00:00,
2013-11-02 01:15:00,47.1,41.0,29.76,NW,323,3.0,10.0,78,0.00,,,0.00,weatherlink.com 1.10,2013-11-02 05:15:00,
2013-11-02 01:30:00,46.9,41.0,29.75,West,263,5.0,8.0,79,0.00,,,0.00,weatherlink.com 1.10,2013-11-02 05:30:00,
2013-11-02 01:45:00,46.8,40.0,29.76,NW,315,2.0,9.0,78,0.00,,,0.00,weatherlink.com 1.10,2013-11-02 05:45:00,
2013-11-02 02:00:00,46.8,40.0,29.76,WNW,300,3.0,10.0,77,0.00,,,0.00,weatherlink.com 1.10,2013-11-02 06:00:00,
2013-11-02 02:15:00,46.9,40.0,29.76,WNW,282,3.0,8.0,77,0.00,,,0.00,weatherlink.com 1.10,2013-11-02 06:15:00,
2013-11-02 02:30:00,46.7,40.0,29.76,WNW,303,3.0,8.0,76,0.00,,,0.00,weatherlink.com 1.10,2013-11-02 06:30:00,
2013-11-02 02:46:00,46.7,39.0,29.77,WSW,252,2.0,7.0,75,0.00,,,0.00,weatherlink.com 1.10,2013-11-02 06:46:00,
2013-11-02 03:01:00,46.4,39.0,29.76,WNW,293,4.0,7.0,76,0.00,,,0.00,weatherlink.com 1.10,2013-11-02 07:01:00,
2013-11-02 03:16:00,46.4,39.0,29.76,NW,311,4.0,9.0,75,0.00,,,0.00,weatherlink.com 1.10,2013-11-02 07:16:00,
2013-11-02 03:31:00,46.7,40.0,29.76,NW,309,3.0,9.0,76,0.00,,,0.00,weatherlink.com 1.10,2013-11-02 07:31:00,
2013-11-02 03:46:00,46.6,40.0,29.77,WNW,292,3.0,12.0,77,0.00,,,0.00,weatherlink.com 1.10,2013-11-02 07:46:00,
2013-11-02 04:01:00,46.1,40.0,29.77,NW,307,4.0,9.0,78,0.00,,,0.00,weatherlink.com 1.10,2013-11-02 08:01:00,
2013-11-02 04:16:00,46.0,40.0,29.77,West,270,6.0,6.0,79,0.00,,,0.00,weatherlink.com 1.10,2013-11-02 08:16:00,
2013-11-02 04:31:00,45.6,40.0,29.77,West,272,5.0,9.0,81,0.00,,,0.00,weatherlink.com 1.10,2013-11-02 08:31:00,
2013-11-02 04:46:00,45.1,40.0,29.77,NNW,340,2.0,7.0,82,0.00,,,0.00,weatherlink.com 1.10,2013-11-02 08:46:00,
2013-11-02 05:01:00,44.7,40.0,29.77,NW,322,2.0,4.0,83,0.00,,,0.00,weatherlink.com 1.10,2013-11-02 09:01:00,
2013-11-02 05:16:00,44.5,40.0,29.77,WNW,293,1.0,6.0,83,0.00,,,0.00,weatherlink.com 1.10,2013-11-02 09:16:00,
2013-11-02 05:31:00,44.3,40.0,29.77,NW,313,3.0,6.0,84,0.00,,,0.00,weatherlink.com 1.10,2013-11-02 09:31:00,
2013-11-02 05:46:00,43.8,40.0,29.78,WNW,290,3.0,5.0,86,0.00,,,0.00,weatherlink.com 1.10,2013-11-02 09:46:00,
2013-11-02 06:01:00,43.5,40.0,29.78,NW,304,3.0,5.0,86,0.00,,,0.00,weatherlink.com 1.10,2013-11-02 10:01:00,
2013-11-02 06:16:00,43.4,40.0,29.78,SW,229,4.0,8.0,87,0.00,,,0.00,weatherlink.com 1.10,2013-11-02 10:16:00,
2013-11-02 06:31:00,43.8,40.0,29.79,NNW,331,0.0,8.0,86,0.00,,,0.00,weatherlink.com 1.10,2013-11-02 10:31:00,
2013-11-02 06:46:00,43.3,40.0,29.79,NW,323,1.0,5.0,88,0.00,,,0.00,weatherlink.com 1.10,2013-11-02 10:46:00,
2013-11-02 07:01:00,43.0,40.0,29.79,North,355,1.0,6.0,88,0.00,,,0.00,weatherlink.com 1.10,2013-11-02 11:01:00,
2013-11-02 07:16:00,42.8,40.0,29.79,NW,315,2.0,4.0,89,0.00,,,0.00,weatherlink.com 1.10,2013-11-02 11:16:00,
2013-11-02 07:31:00,42.8,40.0,29.80,NW,325,0.0,3.0,88,0.00,,,0.00,weatherlink.com 1.10,2013-11-02 11:31:00,
2013-11-02 07:46:00,42.7,40.0,29.81,NW,323,1.0,3.0,89,0.00,,,0.00,weatherlink.com 1.10,2013-11-02 11:46:00,
2013-11-02 08:01:00,42.8,40.0,29.82,West,264,0.0,4.0,88,0.00,,,0.00,weatherlink.com 1.10,2013-11-02 12:01:00,
2013-11-02 08:16:00,42.9,40.0,29.82,WNW,299,2.0,3.0,88,0.00,,,0.00,weatherlink.com 1.10,2013-11-02 12:16:00,
2013-11-02 08:25:00,43.4,38.6,29.82,North,5,1.0,1.0,83,0.00,,,0.00,Wunderground v.1.15,2013-11-02 12:25:00,
2013-11-02 08:30:00,43.6,38.5,29.81,North,350,1.0,1.0,82,0.00,,,0.00,Wunderground v.1.15,2013-11-02 12:30:00,
2013-11-02 08:40:00,44.4,37.3,29.82,West,276,1.0,2.0,76,0.00,,,0.00,Wunderground v.1.15,2013-11-02 12:40:00,
2013-11-02 08:47:00,44.7,37.0,29.82,NNW,333,0.0,3.0,74,0.00,,,0.00,weatherlink.com 1.10,2013-11-02 12:47:00,
2013-11-02 08:55:00,44.9,37.1,29.82,North,360,1.0,1.0,74,0.00,,,0.00,Wunderground v.1.15,2013-11-02 12:55:00,
2013-11-02 09:00:00,44.9,36.8,29.83,North,360,0.0,0.0,73,0.00,,,0.00,Wunderground v.1.15,2013-11-02 13:00:00,
2013-11-02 09:05:00,45.0,37.2,29.83,North,355,0.0,1.0,74,0.00,,,0.00,Wunderground v.1.15,2013-11-02 13:05:00,
2013-11-02 09:10:00,45.0,37.2,29.83,North,355,0.0,0.0,74,0.00,,,0.00,Wunderground v.1.15,2013-11-02 13:10:00,
2013-11-02 09:15:00,44.9,38.1,29.83,North,355,0.0,2.0,77,0.00,,,0.00,Wunderground v.1.15,2013-11-02 13:15:00,
2013-11-02 09:20:00,44.8,38.7,29.83,North,355,0.0,0.0,79,0.00,,,0.00,Wunderground v.1.15,2013-11-02 13:20:00,
2013-11-02 09:30:00,44.5,38.4,29.83,North,355,0.0,1.0,79,0.00,,,0.00,Wunderground v.1.15,2013-11-02 13:30:00,
2013-11-02 09:40:00,44.3,38.5,29.84,North,355,1.0,1.0,80,0.00,,,0.00,Wunderground v.1.15,2013-11-02 13:40:00,
2013-11-02 09:45:00,44.2,38.7,29.84,North,355,1.0,1.0,81,0.00,,,0.00,Wunderground v.1.15,2013-11-02 13:45:00,
2013-11-02 09:50:00,44.1,39.0,29.84,North,355,1.0,1.0,82,0.00,,,0.00,Wunderground v.1.15,2013-11-02 13:50:00,
2013-11-02 09:55:00,44.1,39.0,29.84,North,355,0.0,1.0,82,0.00,,,0.00,Wunderground v.1.15,2013-11-02 13:55:00,
2013-11-02 10:05:00,44.2,39.0,29.85,WSW,258,4.0,4.0,82,0.00,,,0.00,weatherlink.com 1.10,2013-11-02 14:05:00,
2013-11-02 10:10:00,44.2,39.4,29.84,WSW,256,2.0,2.0,83,0.00,,,0.00,Wunderground v.1.15,2013-11-02 14:10:00,
2013-11-02 10:18:00,44.4,40.0,29.85,WSW,255,2.0,4.0,83,0.00,,,0.00,weatherlink.com 1.10,2013-11-02 14:18:00,
2013-11-02 10:25:00,44.6,39.4,29.85,WSW,256,1.0,4.0,82,0.00,,,0.00,Wunderground v.1.15,2013-11-02 14:25:00,
2013-11-02 10:30:00,44.9,39.7,29.86,West,259,2.0,3.0,82,0.00,,,0.00,Wunderground v.1.15,2013-11-02 14:30:00,
2013-11-02 10:35:00,45.2,40.0,29.85,WNW,294,3.0,3.0,82,0.00,,,0.00,Wunderground v.1.15,2013-11-02 14:35:00,
2013-11-02 10:40:00,45.5,40.0,29.85,West,269,3.0,3.0,81,0.00,,,0.00,Wunderground v.1.15,2013-11-02 14:40:00,
2013-11-02 10:48:00,45.8,40.0,29.86,WSW,244,3.0,6.0,80,0.00,,,0.00,weatherlink.com 1.10,2013-11-02 14:48:00,
2013-11-02 10:55:00,46.1,39.6,29.85,West,263,3.0,4.0,78,0.00,,,0.00,Wunderground v.1.15,2013-11-02 14:55:00,
2013-11-02 11:00:00,46.3,40.1,29.85,WNW,282,3.0,3.0,79,0.00,,,0.00,Wunderground v.1.15,2013-11-02 15:00:00,
2013-11-02 11:10:00,46.4,39.9,29.85,West,270,4.0,5.0,78,0.00,,,0.00,Wunderground v.1.15,2013-11-02 15:10:00,
2013-11-02 11:19:00,46.7,40.0,29.86,West,274,3.0,10.0,77,0.00,,,0.00,weatherlink.com 1.10,2013-11-02 15:19:00,
2013-11-02 11:25:00,47.1,39.9,29.86,West,259,5.0,8.0,76,0.00,,,0.00,Wunderground v.1.15,2013-11-02 15:25:00,
2013-11-02 11:35:00,47.8,41.0,29.85,WSW,240,5.0,15.0,77,0.00,,,0.00,weatherlink.com 1.10,2013-11-02 15:35:00,
2013-11-02 11:40:00,48.0,40.1,29.86,WNW,284,5.0,7.0,74,0.00,,,0.00,Wunderground v.1.15,2013-11-02 15:40:00,
2013-11-02 11:49:00,48.5,39.0,29.85,West,277,8.0,11.0,71,0.00,,,0.00,weatherlink.com 1.10,2013-11-02 15:49:00,
2013-11-02 11:55:00,48.7,39.7,29.85,North,350,6.0,6.0,71,0.00,,,0.00,Wunderground v.1.15,2013-11-02 15:55:00,
2013-11-02 12:00:00,48.9,39.5,29.85,NE,53,5.0,5.0,70,0.00,,,0.00,Wunderground v.1.15,2013-11-02 16:00:00,
2013-11-02 12:06:00,49.5,40.0,29.85,WNW,296,1.0,8.0,69,0.00,,,0.00,weatherlink.com 1.10,2013-11-02 16:06:00,
2013-11-02 12:15:00,50.3,40.5,29.85,West,281,4.0,7.0,69,0.00,,,0.00,Wunderground v.1.15,2013-11-02 16:15:00,
2013-11-02 12:20:00,50.5,39.6,29.85,SSW,209,5.0,7.0,66,0.00,,,0.00,Wunderground v.1.15,2013-11-02 16:20:00,
2013-11-02 12:25:00,50.6,37.6,29.85,West,263,6.0,7.0,61,0.00,,,0.00,Wunderground v.1.15,2013-11-02 16:25:00,
2013-11-02 12:35:00,50.3,39.0,29.85,WNW,289,6.0,11.0,65,0.00,,,0.00,weatherlink.com 1.10,2013-11-02 16:35:00,
2013-11-02 12:40:00,50.5,39.6,29.85,West,280,5.0,5.0,66,0.00,,,0.00,Wunderground v.1.15,2013-11-02 16:40:00,
2013-11-02 12:50:00,50.6,39.0,29.85,NNW,348,4.0,8.0,65,0.00,,,0.00,weatherlink.com 1.10,2013-11-02 16:50:00,
2013-11-02 13:00:00,48.8,39.8,29.86,NW,307,5.0,5.0,71,0.00,,,0.00,Wunderground v.1.15,2013-11-02 17:00:00,
2013-11-02 13:05:00,48.4,40.1,29.85,West,261,4.0,7.0,73,0.00,,,0.00,Wunderground v.1.15,2013-11-02 17:05:00,
2013-11-02 13:10:00,48.2,39.6,29.85,NNW,346,4.0,4.0,72,0.00,,,0.00,Wunderground v.1.15,2013-11-02 17:10:00,
2013-11-02 13:20:00,48.6,41.0,29.85,WNW,300,2.0,7.0,74,0.00,,,0.00,weatherlink.com 1.10,2013-11-02 17:20:00,
2013-11-02 13:25:00,48.9,39.5,29.85,WSW,252,4.0,5.0,70,0.00,,,0.00,Wunderground v.1.15,2013-11-02 17:25:00,
2013-11-02 13:35:00,49.1,39.0,29.84,NW,310,4.0,10.0,69,0.00,,,0.00,weatherlink.com 1.10,2013-11-02 17:35:00,
2013-11-02 13:40:00,48.8,38.3,29.85,West,277,5.0,5.0,67,0.00,,,0.00,Wunderground v.1.15,2013-11-02 17:40:00,
2013-11-02 13:50:00,48.6,38.0,29.85,NW,313,3.0,12.0,68,0.00,,,0.00,weatherlink.com 1.10,2013-11-02 17:50:00,
2013-11-02 13:55:00,48.4,38.3,29.85,NNE,32,5.0,5.0,68,0.00,,,0.00,Wunderground v.1.15,2013-11-02 17:55:00,
2013-11-02 14:05:00,47.0,38.1,29.85,SW,229,5.0,5.0,71,0.00,,,0.00,Wunderground v.1.15,2013-11-02 18:05:00,
2013-11-02 14:10:00,45.7,38.6,29.85,WNW,282,5.0,5.0,76,0.00,,,0.00,Wunderground v.1.15,2013-11-02 18:10:00,
2013-11-02 14:20:00,45.4,38.6,29.84,NW,304,4.0,5.0,77,0.00,,,0.00,Wunderground v.1.15,2013-11-02 18:20:00,
2013-11-02 14:25:00,45.5,38.7,29.84,NW,311,5.0,7.0,77,0.00,,,0.00,Wunderground v.1.15,2013-11-02 18:25:00,
2013-11-02 14:30:00,46.0,38.9,29.84,West,277,4.0,4.0,76,0.00,,,0.00,Wunderground v.1.15,2013-11-02 18:30:00,
2013-11-02 14:36:00,46.8,39.0,29.84,WSW,252,7.0,10.0,75,0.00,,,0.00,weatherlink.com 1.10,2013-11-02 18:36:00,
2013-11-02 14:45:00,47.9,37.8,29.84,West,262,6.0,10.0,68,0.00,,,0.00,Wunderground v.1.15,2013-11-02 18:45:00,
2013-11-02 14:50:00,47.8,38.1,29.84,WNW,294,6.0,7.0,69,0.00,,,0.00,Wunderground v.1.15,2013-11-02 18:50:00,
2013-11-02 15:00:00,48.7,37.1,29.83,West,267,6.0,6.0,64,0.00,,,0.00,Wunderground v.1.15,2013-11-02 19:00:00,
2013-11-02 15:05:00,49.5,36.2,29.83,West,278,6.0,6.0,60,0.00,,,0.00,Wunderground v.1.15,2013-11-02 19:05:00,
2013-11-02 15:15:00,50.0,37.1,29.83,WNW,289,6.0,10.0,61,0.00,,,0.00,Wunderground v.1.15,2013-11-02 19:15:00,
2013-11-02 15:20:00,49.4,38.5,29.83,WNW,296,6.0,6.0,66,0.00,,,0.00,Wunderground v.1.15,2013-11-02 19:20:00,
2013-11-02 15:30:00,48.3,37.8,29.84,West,271,6.0,12.0,67,0.00,,,0.00,Wunderground v.1.15,2013-11-02 19:30:00,
2013-11-02 15:37:00,46.6,39.0,29.85,NW,304,8.0,18.0,74,0.00,,,0.00,weatherlink.com 1.10,2013-11-02 19:37:00,
2013-11-02 15:45:00,46.9,39.4,29.85,NW,323,4.0,6.0,75,0.00,,,0.00,Wunderground v.1.15,2013-11-02 19:45:00,
2013-11-02 15:50:00,47.4,38.5,29.85,West,260,4.0,5.0,71,0.00,,,0.00,Wunderground v.1.15,2013-11-02 19:50:00,
2013-11-02 16:00:00,49.1,39.4,29.84,SW,229,4.0,4.0,69,0.00,,,0.00,Wunderground v.1.15,2013-11-02 20:00:00,
2013-11-02 16:07:00,49.7,39.0,29.84,NNE,17,3.0,10.0,67,0.00,,,0.00,weatherlink.com 1.10,2013-11-02 20:07:00,
2013-11-02 16:15:00,50.0,36.7,29.84,North,5,5.0,5.0,60,0.00,,,0.00,Wunderground v.1.15,2013-11-02 20:15:00,
2013-11-02 16:20:00,49.7,34.6,29.84,NNW,335,6.0,6.0,56,0.00,,,0.00,Wunderground v.1.15,2013-11-02 20:20:00,
2013-11-02 16:25:00,49.4,35.7,29.84,West,277,6.0,6.0,59,0.00,,,0.00,Wunderground v.1.15,2013-11-02 20:25:00,
2013-11-02 16:30:00,49.2,35.9,29.84,WNW,290,5.0,5.0,60,0.00,,,0.00,Wunderground v.1.15,2013-11-02 20:30:00,
2013-11-02 16:37:00,48.1,34.0,29.85,SSW,212,7.0,12.0,59,0.00,,,0.00,weatherlink.com 1.10,2013-11-02 20:37:00,
2013-11-02 16:45:00,47.5,35.1,29.86,WSW,250,4.0,5.0,62,0.00,,,0.00,Wunderground v.1.15,2013-11-02 20:45:00,
2013-11-02 16:50:00,47.2,34.8,29.86,West,266,4.0,4.0,62,0.00,,,0.00,Wunderground v.1.15,2013-11-02 20:50:00,
2013-11-02 16:55:00,46.9,36.1,29.87,NW,309,5.0,5.0,66,0.00,,,0.00,Wunderground v.1.15,2013-11-02 20:55:00,
2013-11-02 17:00:00,46.6,36.6,29.87,West,265,6.0,10.0,68,0.00,,,0.00,Wunderground v.1.15,2013-11-02 21:00:00,
2013-11-02 17:08:00,45.8,36.0,29.88,NW,306,4.0,12.0,68,0.00,,,0.00,weatherlink.com 1.10,2013-11-02 21:08:00,
2013-11-02 17:15:00,44.9,37.1,29.88,West,275,6.0,6.0,74,0.00,,,0.00,Wunderground v.1.15,2013-11-02 21:15:00,
2013-11-02 17:20:00,44.3,36.5,29.88,WNW,300,5.0,5.0,74,0.00,,,0.00,Wunderground v.1.15,2013-11-02 21:20:00,
2013-11-02 17:26:00,43.9,36.0,29.88,NNW,342,2.0,10.0,75,0.00,,,0.00,weatherlink.com 1.10,2013-11-02 21:26:00,
2013-11-02 17:35:00,43.8,36.7,29.88,NW,323,4.0,4.0,76,0.00,,,0.00,Wunderground v.1.15,2013-11-02 21:35:00,
2013-11-02 17:40:00,43.6,36.5,29.88,WSW,258,4.0,6.0,76,0.00,,,0.00,Wunderground v.1.15,2013-11-02 21:40:00,
2013-11-02 17:50:00,44.3,36.9,29.89,WSW,255,3.0,3.0,75,0.00,,,0.00,Wunderground v.1.15,2013-11-02 21:50:00,
2013-11-02 17:55:00,44.6,36.8,29.89,WNW,288,2.0,3.0,74,0.00,,,0.00,Wunderground v.1.15,2013-11-02 21:55:00,
2013-11-02 18:00:00,44.8,36.7,29.89,West,272,2.0,2.0,73,0.00,,,0.00,Wunderground v.1.15,2013-11-02 22:00:00,
2013-11-02 18:08:00,44.6,36.0,29.90,WSW,238,0.0,5.0,73,0.00,,,0.00,weatherlink.com 1.10,2013-11-02 22:08:00,
2013-11-02 18:15:00,43.8,36.0,29.90,WNW,286,2.0,3.0,74,0.00,,,0.00,Wunderground v.1.15,2013-11-02 22:15:00,
2013-11-02 18:20:00,43.3,35.9,29.90,WNW,286,1.0,2.0,75,0.00,,,0.00,Wunderground v.1.15,2013-11-02 22:20:00,
2013-11-02 18:30:00,42.6,35.6,29.90,WNW,300,1.0,1.0,76,0.00,,,0.00,Wunderground v.1.15,2013-11-02 22:30:00,
2013-11-02 18:39:00,42.4,36.0,29.91,WNW,300,0.0,1.0,77,0.00,,,0.00,weatherlink.com 1.10,2013-11-02 22:39:00,
2013-11-02 18:45:00,42.3,35.6,29.91,WNW,286,1.0,3.0,77,0.00,,,0.00,Wunderground v.1.15,2013-11-02 22:45:00,
2013-11-02 18:50:00,42.3,35.6,29.92,NNW,327,2.0,3.0,77,0.00,,,0.00,Wunderground v.1.15,2013-11-02 22:50:00,
2013-11-02 19:00:00,42.1,35.7,29.92,NNE,18,3.0,3.0,78,0.00,,,0.00,Wunderground v.1.15,2013-11-02 23:00:00,
2013-11-02 19:05:00,42.1,36.1,29.93,West,263,2.0,3.0,79,0.00,,,0.00,Wunderground v.1.15,2013-11-02 23:05:00,
2013-11-02 19:10:00,42.0,36.3,29.93,WNW,293,2.0,2.0,80,0.00,,,0.00,Wunderground v.1.15,2013-11-02 23:10:00,
2013-11-02 19:20:00,41.9,36.5,29.94,WNW,297,2.0,3.0,81,0.00,,,0.00,Wunderground v.1.15,2013-11-02 23:20:00,
2013-11-02 19:25:00,41.8,36.7,29.95,SW,236,2.0,3.0,82,0.00,,,0.00,Wunderground v.1.15,2013-11-02 23:25:00,
2013-11-02 19:30:00,41.6,36.5,29.95,NW,308,3.0,3.0,82,0.00,,,0.00,Wunderground v.1.15,2013-11-02 23:30:00,
2013-11-02 19:40:00,41.2,36.0,29.95,WSW,246,2.0,8.0,82,0.00,,,0.00,weatherlink.com 1.10,2013-11-02 23:40:00,
2013-11-02 19:45:00,41.2,35.8,29.95,WSW,243,3.0,4.0,81,0.00,,,0.00,Wunderground v.1.15,2013-11-02 23:45:00,
2013-11-02 19:50:00,41.0,35.6,29.95,NW,315,3.0,3.0,81,0.00,,,0.00,Wunderground v.1.15,2013-11-02 23:50:00,
2013-11-02 19:55:00,40.7,35.9,29.96,NW,304,3.0,4.0,83,0.00,,,0.00,Wunderground v.1.15,2013-11-02 23:55:00,
2013-11-02 20:00:00,40.4,35.6,29.96,West,277,3.0,3.0,83,0.00,,,0.00,Wunderground v.1.15,2013-11-03 00:00:00,
2013-11-02 20:10:00,40.8,35.0,29.97,WNW,297,2.0,11.0,81,0.00,,,0.00,weatherlink.com 1.10,2013-11-03 00:10:00,
2013-11-02 20:15:00,40.9,35.8,29.97,NW,304,4.0,4.0,82,0.00,,,0.00,Wunderground v.1.15,2013-11-03 00:15:00,
2013-11-02 20:20:00,40.8,35.7,29.98,NW,304,3.0,3.0,82,0.00,,,0.00,Wunderground v.1.15,2013-11-03 00:20:00,
2013-11-02 20:26:00,40.7,36.0,29.98,NNW,337,1.0,6.0,82,0.00,,,0.00,weatherlink.com 1.10,2013-11-03 00:26:00,
2013-11-02 20:35:00,40.5,35.7,29.99,West,267,2.0,3.0,83,0.00,,,0.00,Wunderground v.1.15,2013-11-03 00:35:00,
2013-11-02 20:41:00,40.2,36.0,29.99,WNW,293,4.0,5.0,84,0.00,,,0.00,weatherlink.com 1.10,2013-11-03 00:41:00,
2013-11-02 20:50:00,39.9,35.8,29.99,WSW,257,3.0,3.0,85,0.00,,,0.00,Wunderground v.1.15,2013-11-03 00:50:00,
2013-11-02 20:55:00,39.8,35.7,29.99,West,277,3.0,3.0,85,0.00,,,0.00,Wunderground v.1.15,2013-11-03 00:55:00,
2013-11-02 21:11:00,39.8,36.0,29.99,West,275,2.0,7.0,86,0.00,,,0.00,weatherlink.com 1.10,2013-11-03 01:11:00,
2013-11-02 21:26:00,39.1,36.0,30.00,NNW,342,3.0,5.0,89,0.00,,,0.00,weatherlink.com 1.10,2013-11-03 01:26:00,
2013-11-02 21:41:00,39.0,36.0,30.00,NW,313,1.0,6.0,88,0.00,,,0.00,weatherlink.com 1.10,2013-11-03 01:41:00,
2013-11-02 21:56:00,38.9,36.0,30.01,WNW,295,0.0,7.0,88,0.00,,,0.00,weatherlink.com 1.10,2013-11-03 01:56:00,
2013-11-02 22:11:00,38.8,36.0,30.02,West,268,1.0,7.0,90,0.00,,,0.00,weatherlink.com 1.10,2013-11-03 02:11:00,
2013-11-02 22:26:00,38.7,36.0,30.02,WSW,242,2.0,4.0,89,0.00,,,0.00,weatherlink.com 1.10,2013-11-03 02:26:00,
2013-11-02 22:41:00,38.6,36.0,30.03,WNW,286,1.0,5.0,90,0.00,,,0.00,weatherlink.com 1.10,2013-11-03 02:41:00,
2013-11-02 22:56:00,38.4,36.0,30.04,NNW,329,2.0,5.0,90,0.00,,,0.00,weatherlink.com 1.10,2013-11-03 02:56:00,
2013-11-02 23:11:00,38.5,36.0,30.04,WNW,284,0.0,5.0,89,0.00,,,0.00,weatherlink.com 1.10,2013-11-03 03:11:00,
2013-11-02 23:26:00,38.5,36.0,30.05,NW,304,1.0,4.0,89,0.00,,,0.00,weatherlink.com 1.10,2013-11-03 03:26:00,
2013-11-02 23:41:00,38.6,36.0,30.05,West,263,0.0,5.0,90,0.00,,,0.00,weatherlink.com 1.10,2013-11-03 03:41:00,
2013-11-02 23:56:00,38.2,36.0,30.05,NNW,330,0.0,2.0,90,0.00,,,0.00,weatherlink.com 1.10,2013-11-03 03:56:00,